createdAt,value
2018-11-25T00:00:04.266Z,51.40
2018-11-25T00:01:04.233Z,47.30
2018-11-25T00:02:04.220Z,47.20
2018-11-25T00:03:04.187Z,46.50
2018-11-25T00:04:04.165Z,49.00
2018-11-25T00:05:04.140Z,49.40
2018-11-25T00:06:04.107Z,55.50
2018-11-25T00:07:04.087Z,53.50
2018-11-25T00:08:04.058Z,50.80
2018-11-25T00:09:04.035Z,49.10
2018-11-25T00:10:04.006Z,50.00
2018-11-25T00:11:03.982Z,49.10
2018-11-25T00:12:03.971Z,51.40
2018-11-25T00:13:03.930Z,54.00
2018-11-25T00:14:03.905Z,53.30
2018-11-25T00:15:03.884Z,55.30
2018-11-25T00:16:03.856Z,53.60
2018-11-25T00:17:03.829Z,53.50
2018-11-25T00:18:03.803Z,47.90
2018-11-25T00:19:03.777Z,53.00
2018-11-25T00:20:03.758Z,50.30
2018-11-25T00:21:03.728Z,48.40
2018-11-25T00:22:03.712Z,53.70
2018-11-25T00:23:03.685Z,50.90
2018-11-25T00:24:03.651Z,51.60
2018-11-25T00:25:03.628Z,53.20
2018-11-25T00:26:03.613Z,56.10
2018-11-25T00:27:03.580Z,52.50
2018-11-25T00:28:03.555Z,57.70
2018-11-25T00:29:03.534Z,53.60
2018-11-25T00:30:03.504Z,57.60
2018-11-25T00:31:09.453Z,56.80
2018-11-25T00:32:03.463Z,55.40
2018-11-25T00:33:03.425Z,55.40
2018-11-25T00:34:03.401Z,55.80
2018-11-25T00:35:03.380Z,57.40
2018-11-25T00:36:03.350Z,52.70
2018-11-25T00:37:03.329Z,55.90
2018-11-25T00:38:03.299Z,54.00
2018-11-25T00:39:03.279Z,58.10
2018-11-25T00:40:03.255Z,57.90
2018-11-25T00:41:03.224Z,55.10
2018-11-25T00:42:03.216Z,57.30
2018-11-25T00:43:03.176Z,61.60
2018-11-25T00:44:03.146Z,55.60
2018-11-25T00:45:03.132Z,56.00
2018-11-25T00:46:03.097Z,54.00
2018-11-25T00:47:03.071Z,60.10
2018-11-25T00:48:03.048Z,57.40
2018-11-25T00:49:03.021Z,55.60
2018-11-25T00:50:02.995Z,53.50
2018-11-25T00:51:02.974Z,54.00
2018-11-25T00:52:02.943Z,54.70
2018-11-25T00:53:02.920Z,55.30
2018-11-25T00:54:02.894Z,51.20
2018-11-25T00:55:02.867Z,51.60
2018-11-25T00:56:02.846Z,53.00
2018-11-25T00:57:02.817Z,48.80
2018-11-25T00:58:02.799Z,49.30
2018-11-25T00:59:02.768Z,48.60
2018-11-25T01:00:02.739Z,50.60
2018-11-25T01:01:02.719Z,47.10
2018-11-25T01:02:02.694Z,49.90
2018-11-25T01:03:02.665Z,53.80
2018-11-25T01:04:02.643Z,48.60
2018-11-25T01:05:02.612Z,49.30
2018-11-25T01:06:02.590Z,51.20
2018-11-25T01:07:02.567Z,49.10
2018-11-25T01:08:02.539Z,50.20
2018-11-25T01:09:02.510Z,55.50
2018-11-25T01:10:02.485Z,56.20
2018-11-25T01:11:02.459Z,53.80
2018-11-25T01:12:02.442Z,52.00
2018-11-25T01:13:02.406Z,58.50
2018-11-25T01:14:02.381Z,54.70
2018-11-25T01:15:02.365Z,52.40
2018-11-25T01:16:02.333Z,51.50
2018-11-25T01:17:02.305Z,56.40
2018-11-25T01:18:02.280Z,52.70
2018-11-25T01:19:02.252Z,56.40
2018-11-25T01:20:02.230Z,52.40
2018-11-25T01:21:02.204Z,48.60
2018-11-25T01:22:02.178Z,53.10
2018-11-25T01:23:02.153Z,55.60
2018-11-25T01:24:02.126Z,52.20
2018-11-25T01:25:02.106Z,57.90
2018-11-25T01:26:02.079Z,54.60
2018-11-25T01:27:02.055Z,54.00
2018-11-25T01:28:02.034Z,53.70
2018-11-25T01:29:02.011Z,53.00
2018-11-25T01:30:01.972Z,55.30
2018-11-25T01:31:01.948Z,53.00
2018-11-25T01:32:01.929Z,51.90
2018-11-25T01:33:01.903Z,55.30
2018-11-25T01:34:01.874Z,55.40
2018-11-25T01:35:01.853Z,56.10
2018-11-25T01:36:01.831Z,52.10
2018-11-25T01:37:01.800Z,47.60
2018-11-25T01:38:01.772Z,52.30
2018-11-25T01:39:01.745Z,52.80
2018-11-25T01:40:01.723Z,52.80
2018-11-25T01:41:01.695Z,48.20
2018-11-25T01:42:01.669Z,51.70
2018-11-25T01:43:01.652Z,52.20
2018-11-25T01:44:01.616Z,53.80
2018-11-25T01:45:01.594Z,54.80
2018-11-25T01:46:01.568Z,55.20
2018-11-25T01:47:01.538Z,58.70
2018-11-25T01:48:01.513Z,53.50
2018-11-25T01:49:01.497Z,53.90
2018-11-25T01:50:01.466Z,48.40
2018-11-25T01:51:01.437Z,47.80
2018-11-25T01:52:01.412Z,47.90
2018-11-25T01:53:01.384Z,52.30
2018-11-25T01:54:01.358Z,52.60
2018-11-25T01:55:01.336Z,50.50
2018-11-25T01:56:01.310Z,54.10
2018-11-25T01:57:01.282Z,53.20
2018-11-25T01:58:01.261Z,47.30
2018-11-25T01:59:01.231Z,50.70
2018-11-25T02:00:01.206Z,48.20
2018-11-25T02:01:01.179Z,46.70
2018-11-25T02:02:01.153Z,48.10
2018-11-25T02:03:01.132Z,52.80
2018-11-25T02:04:01.106Z,50.90
2018-11-25T02:05:01.077Z,52.90
2018-11-25T02:06:01.052Z,49.60
2018-11-25T02:07:01.026Z,53.70
2018-11-25T02:08:01.002Z,49.50
2018-11-25T02:09:00.973Z,50.80
2018-11-25T02:10:00.964Z,51.20
2018-11-25T02:11:00.925Z,53.00
2018-11-25T02:12:00.900Z,50.30
2018-11-25T02:13:00.872Z,50.70
2018-11-25T02:14:00.846Z,48.50
2018-11-25T02:15:00.833Z,49.10
2018-11-25T02:16:00.797Z,49.90
2018-11-25T02:17:00.776Z,47.60
2018-11-25T02:18:00.743Z,51.70
2018-11-25T02:19:00.719Z,49.80
2018-11-25T02:20:00.693Z,52.90
2018-11-25T02:21:00.668Z,55.40
2018-11-25T02:22:00.641Z,55.50
2018-11-25T02:23:00.618Z,53.90
2018-11-25T02:24:00.596Z,57.80
2018-11-25T02:25:00.566Z,56.40
2018-11-25T02:26:00.538Z,55.70
2018-11-25T02:27:00.518Z,53.60
2018-11-25T02:28:00.486Z,56.00
2018-11-25T02:29:00.462Z,52.30
2018-11-25T02:30:00.442Z,53.70
2018-11-25T02:31:00.411Z,57.40
2018-11-25T02:32:00.385Z,59.60
2018-11-25T02:33:00.365Z,60.70
2018-11-25T02:34:00.334Z,61.70
2018-11-25T02:35:00.309Z,59.80
2018-11-25T02:36:00.282Z,57.60
2018-11-25T02:37:00.268Z,57.70
2018-11-25T02:38:00.232Z,68.40
2018-11-25T02:39:00.211Z,63.00
2018-11-25T02:40:00.181Z,60.00
2018-11-25T02:41:00.154Z,60.90
2018-11-25T02:42:00.129Z,62.80
2018-11-25T02:43:00.104Z,57.90
2018-11-25T02:44:00.078Z,66.80
2018-11-25T02:45:00.083Z,62.40
2018-11-25T02:46:00.038Z,63.40
2018-11-25T02:47:00.015Z,69.10
2018-11-25T02:47:59.975Z,67.80
2018-11-25T02:48:59.954Z,72.50
2018-11-25T02:49:59.923Z,68.50
2018-11-25T02:50:59.899Z,67.60
2018-11-25T02:51:59.874Z,72.00
2018-11-25T02:52:59.846Z,71.90
2018-11-25T02:53:59.820Z,72.90
2018-11-25T02:54:59.795Z,73.30
2018-11-25T02:55:59.774Z,75.10
2018-11-25T02:56:59.745Z,76.40
2018-11-25T02:58:00.872Z,81.20
2018-11-25T02:58:59.704Z,76.80
2018-11-25T02:59:59.670Z,78.20
2018-11-25T03:00:59.643Z,77.00
2018-11-25T03:01:59.617Z,78.00
2018-11-25T03:02:59.594Z,78.30
2018-11-25T03:03:59.573Z,79.50
2018-11-25T03:04:59.540Z,80.60
2018-11-25T03:05:59.520Z,82.70
2018-11-25T03:06:59.492Z,75.40
2018-11-25T03:07:59.473Z,80.50
2018-11-25T03:08:59.437Z,77.50
2018-11-25T03:09:59.412Z,83.50
2018-11-25T03:10:59.388Z,86.10
2018-11-25T03:11:59.369Z,81.30
2018-11-25T03:12:59.334Z,87.90
2018-11-25T03:13:59.317Z,88.00
2018-11-25T03:14:59.283Z,83.10
2018-11-25T03:15:59.258Z,88.00
2018-11-25T03:16:59.231Z,87.80
2018-11-25T03:17:59.207Z,88.70
2018-11-25T03:18:59.183Z,92.60
2018-11-25T03:19:59.156Z,87.90
2018-11-25T03:20:59.132Z,90.00
2018-11-25T03:21:59.103Z,94.30
2018-11-25T03:22:59.079Z,86.70
2018-11-25T03:23:59.058Z,83.40
2018-11-25T03:24:59.028Z,86.90
2018-11-25T03:25:59.000Z,95.20
2018-11-25T03:26:58.977Z,94.40
2018-11-25T03:27:58.952Z,93.30
2018-11-25T03:28:58.925Z,96.80
2018-11-25T03:29:58.899Z,93.70
2018-11-25T03:30:58.875Z,94.60
2018-11-25T03:31:58.849Z,86.60
2018-11-25T03:32:58.825Z,90.50
2018-11-25T03:33:58.797Z,94.90
2018-11-25T03:34:58.773Z,90.20
2018-11-25T03:35:58.750Z,96.50
2018-11-25T03:36:58.724Z,101.50
2018-11-25T03:37:58.697Z,96.10
2018-11-25T03:38:58.672Z,90.70
2018-11-25T03:39:58.645Z,83.90
2018-11-25T03:40:58.624Z,90.10
2018-11-25T03:41:58.594Z,88.90
2018-11-25T03:42:58.568Z,92.30
2018-11-25T03:43:58.544Z,86.40
2018-11-25T03:44:58.517Z,95.60
2018-11-25T03:45:58.494Z,90.60
2018-11-25T03:46:58.473Z,91.00
2018-11-25T03:47:58.446Z,86.50
2018-11-25T03:48:58.416Z,90.70
2018-11-25T03:49:58.395Z,92.70
2018-11-25T03:50:58.366Z,114.10
2018-11-25T03:51:58.375Z,120.60
2018-11-25T03:52:58.318Z,112.20
2018-11-25T03:53:58.299Z,124.20
2018-11-25T03:54:58.265Z,125.20
2018-11-25T03:55:58.238Z,124.30
2018-11-25T03:56:58.213Z,114.80
2018-11-25T03:57:58.187Z,116.70
2018-11-25T03:58:58.161Z,116.80
2018-11-25T03:59:58.138Z,123.10
2018-11-25T04:00:58.115Z,115.40
2018-11-25T04:01:58.085Z,131.20
2018-11-25T04:02:58.059Z,130.60
2018-11-25T04:03:58.033Z,127.40
2018-11-25T04:04:58.012Z,124.00
2018-11-25T04:05:57.982Z,130.00
2018-11-25T04:06:57.960Z,126.90
2018-11-25T04:07:57.933Z,121.00
2018-11-25T04:08:57.906Z,121.30
2018-11-25T04:09:57.888Z,137.70
2018-11-25T04:10:57.856Z,109.80
2018-11-25T04:11:57.831Z,126.90
2018-11-25T04:12:57.805Z,115.00
2018-11-25T04:13:57.779Z,118.80
2018-11-25T04:14:57.755Z,125.10
2018-11-25T04:15:57.729Z,117.20
2018-11-25T04:16:57.706Z,130.60
2018-11-25T04:17:57.678Z,121.50
2018-11-25T04:18:57.652Z,129.50
2018-11-25T04:19:57.632Z,133.70
2018-11-25T04:20:57.601Z,143.80
2018-11-25T04:21:57.578Z,130.30
2018-11-25T04:22:57.550Z,133.80
2018-11-25T04:23:57.525Z,140.10
2018-11-25T04:24:57.498Z,127.40
2018-11-25T04:25:57.472Z,141.40
2018-11-25T04:26:57.452Z,131.20
2018-11-25T04:27:57.427Z,128.20
2018-11-25T04:28:57.408Z,134.60
2018-11-25T04:29:57.376Z,143.50
2018-11-25T04:30:57.346Z,135.00
2018-11-25T04:31:57.321Z,135.50
2018-11-25T04:32:57.300Z,134.60
2018-11-25T04:33:57.268Z,150.70
2018-11-25T04:34:57.243Z,148.00
2018-11-25T04:35:57.227Z,150.40
2018-11-25T04:36:57.193Z,137.60
2018-11-25T04:37:57.169Z,143.40
2018-11-25T04:38:57.145Z,138.20
2018-11-25T04:39:57.122Z,146.70
2018-11-25T04:40:57.096Z,144.60
2018-11-25T04:41:57.065Z,149.80
2018-11-25T04:42:57.042Z,135.00
2018-11-25T04:43:57.014Z,147.10
2018-11-25T04:44:56.989Z,135.30
2018-11-25T04:45:56.962Z,145.60
2018-11-25T04:46:56.937Z,142.10
2018-11-25T04:47:56.911Z,141.60
2018-11-25T04:48:56.884Z,153.40
2018-11-25T04:49:56.862Z,161.50
2018-11-25T04:50:56.839Z,165.60
2018-11-25T04:51:56.809Z,155.20
2018-11-25T04:52:56.781Z,152.30
2018-11-25T04:53:56.759Z,135.80
2018-11-25T04:54:56.735Z,146.20
2018-11-25T04:55:56.712Z,145.30
2018-11-25T04:56:56.679Z,139.40
2018-11-25T04:57:56.657Z,136.80
2018-11-25T04:58:56.627Z,132.40
2018-11-25T04:59:56.603Z,130.00
2018-11-25T05:00:56.577Z,132.00
2018-11-25T05:01:56.595Z,116.20
2018-11-25T05:02:56.527Z,125.50
2018-11-25T05:03:56.503Z,125.40
2018-11-25T05:04:56.475Z,124.40
2018-11-25T05:05:56.448Z,129.30
2018-11-25T05:06:56.424Z,110.60
2018-11-25T05:07:56.401Z,99.10
2018-11-25T05:08:56.373Z,108.90
2018-11-25T05:09:56.348Z,105.60
2018-11-25T05:10:56.321Z,101.70
2018-11-25T05:11:56.297Z,98.50
2018-11-25T05:12:56.272Z,105.70
2018-11-25T05:13:56.248Z,103.10
2018-11-25T05:14:56.220Z,108.40
2018-11-25T05:15:56.195Z,100.70
2018-11-25T05:16:56.168Z,96.10
2018-11-25T05:17:56.144Z,103.90
2018-11-25T05:18:56.119Z,100.60
2018-11-25T05:19:56.093Z,100.90
2018-11-25T05:20:56.068Z,135.30
2018-11-25T05:21:56.042Z,152.40
2018-11-25T05:22:56.018Z,185.10
2018-11-25T05:23:55.991Z,198.20
2018-11-25T05:24:55.967Z,165.60
2018-11-25T05:25:55.941Z,211.10
2018-11-25T05:26:55.918Z,170.70
2018-11-25T05:27:55.890Z,155.50
2018-11-25T05:28:55.863Z,181.20
2018-11-25T05:29:55.848Z,154.70
2018-11-25T05:30:55.824Z,160.20
2018-11-25T05:31:55.788Z,149.30
2018-11-25T05:32:55.760Z,143.30
2018-11-25T05:33:55.734Z,128.20
2018-11-25T05:34:55.711Z,130.10
2018-11-25T05:35:55.723Z,113.10
2018-11-25T05:36:55.657Z,119.80
2018-11-25T05:37:55.643Z,120.70
2018-11-25T05:38:55.608Z,106.10
2018-11-25T05:39:55.586Z,102.40
2018-11-25T05:40:55.555Z,93.70
2018-11-25T05:41:55.533Z,96.30
2018-11-25T05:42:55.511Z,94.20
2018-11-25T05:43:55.480Z,91.30
2018-11-25T05:44:55.454Z,83.30
2018-11-25T05:45:55.429Z,89.80
2018-11-25T05:46:55.404Z,91.30
2018-11-25T05:47:55.378Z,103.30
2018-11-25T05:48:55.352Z,103.00
2018-11-25T05:49:55.329Z,107.60
2018-11-25T05:50:55.303Z,94.70
2018-11-25T05:51:55.281Z,99.50
2018-11-25T05:52:55.252Z,94.50
2018-11-25T05:53:55.224Z,102.10
2018-11-25T05:54:55.201Z,99.20
2018-11-25T05:55:55.172Z,102.70
2018-11-25T05:56:55.148Z,92.50
2018-11-25T05:57:55.122Z,99.20
2018-11-25T05:58:55.098Z,94.90
2018-11-25T05:59:55.076Z,99.20
2018-11-25T06:00:55.096Z,100.20
2018-11-25T06:01:55.022Z,91.50
2018-11-25T06:02:54.999Z,87.50
2018-11-25T06:03:54.968Z,93.70
2018-11-25T06:04:54.949Z,88.20
2018-11-25T06:05:54.918Z,95.20
2018-11-25T06:06:54.892Z,100.50
2018-11-25T06:07:54.867Z,92.00
2018-11-25T06:08:54.842Z,87.10
2018-11-25T06:09:54.815Z,90.10
2018-11-25T06:10:54.796Z,86.50
2018-11-25T06:11:54.764Z,85.90
2018-11-25T06:12:54.743Z,92.40
2018-11-25T06:13:54.713Z,99.00
2018-11-25T06:14:54.690Z,103.60
2018-11-25T06:15:54.662Z,97.00
2018-11-25T06:16:54.637Z,96.50
2018-11-25T06:17:54.609Z,87.50
2018-11-25T06:18:54.584Z,92.20
2018-11-25T06:19:54.568Z,87.00
2018-11-25T06:20:54.537Z,89.20
2018-11-25T06:21:54.508Z,85.00
2018-11-25T06:22:54.486Z,94.00
2018-11-25T06:23:54.456Z,89.00
2018-11-25T06:24:54.434Z,95.60
2018-11-25T06:25:54.406Z,88.20
2018-11-25T06:26:54.380Z,92.00
2018-11-25T06:27:54.357Z,87.50
2018-11-25T06:28:54.329Z,99.70
2018-11-25T06:29:54.303Z,101.70
2018-11-25T06:30:54.283Z,95.90
2018-11-25T06:31:54.253Z,92.10
2018-11-25T06:32:54.226Z,93.70
2018-11-25T06:33:54.201Z,95.60
2018-11-25T06:34:54.179Z,97.50
2018-11-25T06:35:54.153Z,92.00
2018-11-25T06:36:54.125Z,108.30
2018-11-25T06:37:54.109Z,93.40
2018-11-25T06:38:54.074Z,108.70
2018-11-25T06:39:54.048Z,98.60
2018-11-25T06:40:54.026Z,104.00
2018-11-25T06:41:54.008Z,102.90
2018-11-25T06:42:53.973Z,102.30
2018-11-25T06:43:53.948Z,104.20
2018-11-25T06:44:53.920Z,99.80
2018-11-25T06:45:53.900Z,105.70
2018-11-25T06:46:53.869Z,91.00
2018-11-25T06:47:53.847Z,94.00
2018-11-25T06:48:55.005Z,94.10
2018-11-25T06:49:53.796Z,83.40
2018-11-25T06:50:53.769Z,90.30
2018-11-25T06:51:53.745Z,94.80
2018-11-25T06:52:53.718Z,91.40
2018-11-25T06:53:53.692Z,100.40
2018-11-25T06:54:53.685Z,111.10
2018-11-25T06:55:53.646Z,99.00
2018-11-25T06:56:53.615Z,102.20
2018-11-25T06:57:53.591Z,108.10
2018-11-25T06:58:53.567Z,102.90
2018-11-25T06:59:53.550Z,103.50
2018-11-25T07:00:53.513Z,100.20
2018-11-25T07:01:53.490Z,101.50
2018-11-25T07:02:53.470Z,96.00
2018-11-25T07:03:53.439Z,96.80
2018-11-25T07:04:53.412Z,95.40
2018-11-25T07:05:53.389Z,96.50
2018-11-25T07:06:53.361Z,102.80
2018-11-25T07:07:53.336Z,96.50
2018-11-25T07:08:53.308Z,104.40
2018-11-25T07:09:53.284Z,104.80
2018-11-25T07:10:53.259Z,108.10
2018-11-25T07:11:53.234Z,99.20
2018-11-25T07:12:53.208Z,108.20
2018-11-25T07:13:53.188Z,106.80
2018-11-25T07:14:53.157Z,108.20
2018-11-25T07:15:53.135Z,115.30
2018-11-25T07:16:53.106Z,120.10
2018-11-25T07:17:53.081Z,123.10
2018-11-25T07:18:53.057Z,115.70
2018-11-25T07:19:53.029Z,122.40
2018-11-25T07:20:53.005Z,127.90
2018-11-25T07:21:52.979Z,110.30
2018-11-25T07:22:54.140Z,116.40
2018-11-25T07:23:52.925Z,114.50
2018-11-25T07:24:52.903Z,131.00
2018-11-25T07:25:52.873Z,104.50
2018-11-25T07:26:52.848Z,99.50
2018-11-25T07:27:52.829Z,85.80
2018-11-25T07:28:52.801Z,84.90
2018-11-25T07:29:52.773Z,88.90
2018-11-25T07:30:52.747Z,83.90
2018-11-25T07:31:52.720Z,79.80
2018-11-25T07:32:52.700Z,70.80
2018-11-25T07:33:52.668Z,67.60
2018-11-25T07:34:52.650Z,70.00
2018-11-25T07:35:52.621Z,68.50
2018-11-25T07:36:52.595Z,65.80
2018-11-25T07:37:52.569Z,69.80
2018-11-25T07:38:52.540Z,69.30
2018-11-25T07:39:52.525Z,68.90
2018-11-25T07:40:52.490Z,64.10
2018-11-25T07:41:52.473Z,66.00
2018-11-25T07:42:52.458Z,61.90
2018-11-25T07:43:52.428Z,62.90
2018-11-25T07:44:52.394Z,60.10
2018-11-25T07:45:52.361Z,66.00
2018-11-25T07:46:52.340Z,63.60
2018-11-25T07:47:52.323Z,59.70
2018-11-25T07:48:52.284Z,62.80
2018-11-25T07:49:52.258Z,63.80
2018-11-25T07:50:52.243Z,67.50
2018-11-25T07:51:52.226Z,66.30
2018-11-25T07:52:52.179Z,67.30
2018-11-25T07:53:52.158Z,64.60
2018-11-25T07:54:52.144Z,61.00
2018-11-25T07:55:52.104Z,65.10
2018-11-25T07:56:52.078Z,63.00
2018-11-25T07:57:52.051Z,67.00
2018-11-25T07:58:52.029Z,66.50
2018-11-25T07:59:52.003Z,58.90
2018-11-25T08:00:51.974Z,63.50
2018-11-25T08:01:51.950Z,59.00
2018-11-25T08:02:51.925Z,61.30
2018-11-25T08:03:51.900Z,63.20
2018-11-25T08:04:51.877Z,67.10
2018-11-25T08:05:51.850Z,62.50
2018-11-25T08:06:51.829Z,66.40
2018-11-25T08:07:51.800Z,62.70
2018-11-25T08:08:51.773Z,63.40
2018-11-25T08:09:51.747Z,61.70
2018-11-25T08:10:51.725Z,62.10
2018-11-25T08:11:51.697Z,62.60
2018-11-25T08:12:51.669Z,67.80
2018-11-25T08:13:51.650Z,62.80
2018-11-25T08:14:51.619Z,66.00
2018-11-25T08:15:51.595Z,68.50
2018-11-25T08:16:51.570Z,68.90
2018-11-25T08:17:51.546Z,69.90
2018-11-25T08:18:51.521Z,67.70
2018-11-25T08:19:51.493Z,73.00
2018-11-25T08:20:51.472Z,69.40
2018-11-25T08:21:51.440Z,74.10
2018-11-25T08:22:51.419Z,72.60
2018-11-25T08:23:51.396Z,72.50
2018-11-25T08:24:51.366Z,70.70
2018-11-25T08:25:51.349Z,68.70
2018-11-25T08:26:51.339Z,78.30
2018-11-25T08:27:51.292Z,69.00
2018-11-25T08:28:51.266Z,70.50
2018-11-25T08:29:51.250Z,72.50
2018-11-25T08:30:51.219Z,73.00
2018-11-25T08:31:51.196Z,68.40
2018-11-25T08:32:51.180Z,69.80
2018-11-25T08:33:51.141Z,66.60
2018-11-25T08:34:51.119Z,71.40
2018-11-25T08:35:51.100Z,69.60
2018-11-25T08:36:51.069Z,75.20
2018-11-25T08:37:51.046Z,71.30
2018-11-25T08:38:51.013Z,65.20
2018-11-25T08:39:50.988Z,69.30
2018-11-25T08:40:50.967Z,67.90
2018-11-25T08:41:50.936Z,68.60
2018-11-25T08:42:50.914Z,65.40
2018-11-25T08:43:50.884Z,62.20
2018-11-25T08:44:50.864Z,63.30
2018-11-25T08:45:50.835Z,69.30
2018-11-25T08:46:50.808Z,67.30
2018-11-25T08:47:50.790Z,64.90
2018-11-25T08:48:50.760Z,65.60
2018-11-25T08:49:50.737Z,67.90
2018-11-25T08:50:50.713Z,67.20
2018-11-25T08:51:50.683Z,63.20
2018-11-25T08:52:50.657Z,64.60
2018-11-25T08:53:50.631Z,67.60
2018-11-25T08:54:50.606Z,69.10
2018-11-25T08:55:50.578Z,62.70
2018-11-25T08:56:50.552Z,63.60
2018-11-25T08:57:50.532Z,66.60
2018-11-25T08:58:50.509Z,71.20
2018-11-25T08:59:50.478Z,65.80
2018-11-25T09:00:50.451Z,66.80
2018-11-25T09:01:50.426Z,63.60
2018-11-25T09:02:50.408Z,63.70
2018-11-25T09:03:50.379Z,65.10
2018-11-25T09:04:50.347Z,62.00
2018-11-25T09:05:50.324Z,59.50
2018-11-25T09:06:50.300Z,63.80
2018-11-25T09:07:50.272Z,60.10
2018-11-25T09:08:50.271Z,57.80
2018-11-25T09:09:50.282Z,57.70
2018-11-25T09:10:50.197Z,56.80
2018-11-25T09:11:50.172Z,59.70
2018-11-25T09:12:55.284Z,57.00
2018-11-25T09:13:50.122Z,56.10
2018-11-25T09:14:50.092Z,59.40
2018-11-25T09:15:50.101Z,55.70
2018-11-25T09:16:50.041Z,52.40
2018-11-25T09:17:50.031Z,64.50
2018-11-25T09:18:49.992Z,61.90
2018-11-25T09:19:49.967Z,56.70
2018-11-25T09:20:49.939Z,59.30
2018-11-25T09:21:49.913Z,63.20
2018-11-25T09:22:49.899Z,59.40
2018-11-25T09:23:49.867Z,58.80
2018-11-25T09:24:49.838Z,57.90
2018-11-25T09:25:49.812Z,56.10
2018-11-25T09:26:49.805Z,58.20
2018-11-25T09:27:49.765Z,55.50
2018-11-25T09:28:49.739Z,58.80
2018-11-25T09:29:49.716Z,56.40
2018-11-25T09:30:49.690Z,57.70
2018-11-25T09:31:49.662Z,54.80
2018-11-25T09:32:49.633Z,58.10
2018-11-25T09:33:49.615Z,59.60
2018-11-25T09:34:49.584Z,63.40
2018-11-25T09:35:49.570Z,61.90
2018-11-25T09:36:49.540Z,61.30
2018-11-25T09:37:49.520Z,58.70
2018-11-25T09:38:49.497Z,59.90
2018-11-25T09:39:49.460Z,60.90
2018-11-25T09:40:49.460Z,66.10
2018-11-25T09:41:49.418Z,60.90
2018-11-25T09:42:49.386Z,60.50
2018-11-25T09:43:49.361Z,59.50
2018-11-25T09:44:49.332Z,62.20
2018-11-25T09:45:49.311Z,59.90
2018-11-25T09:46:49.290Z,57.70
2018-11-25T09:47:49.266Z,61.80
2018-11-25T09:48:49.230Z,57.90
2018-11-25T09:49:49.206Z,59.80
2018-11-25T09:50:49.178Z,59.20
2018-11-25T09:51:49.153Z,58.30
2018-11-25T09:52:49.136Z,59.00
2018-11-25T09:53:49.108Z,60.40
2018-11-25T09:54:49.077Z,62.00
2018-11-25T09:55:49.057Z,61.40
2018-11-25T09:56:49.033Z,60.70
2018-11-25T09:57:49.001Z,62.50
2018-11-25T09:58:48.981Z,62.10
2018-11-25T09:59:48.960Z,67.10
2018-11-25T10:00:48.930Z,58.20
2018-11-25T10:01:48.901Z,58.30
2018-11-25T10:02:48.889Z,57.70
2018-11-25T10:03:48.851Z,59.00
2018-11-25T10:04:48.828Z,60.80
2018-11-25T10:05:48.803Z,65.10
2018-11-25T10:06:48.776Z,62.70
2018-11-25T10:07:48.759Z,62.00
2018-11-25T10:08:48.725Z,67.40
2018-11-25T10:09:48.703Z,62.00
2018-11-25T10:10:52.609Z,64.60
2018-11-25T10:11:48.652Z,64.60
2018-11-25T10:12:48.645Z,64.00
2018-11-25T10:13:48.597Z,65.90
2018-11-25T10:14:48.569Z,61.00
2018-11-25T10:15:48.548Z,63.20
2018-11-25T10:16:48.521Z,60.80
2018-11-25T10:17:48.501Z,63.10
2018-11-25T10:18:48.478Z,60.70
2018-11-25T10:19:48.456Z,63.30
2018-11-25T10:20:48.440Z,57.10
2018-11-25T10:21:48.392Z,63.80
2018-11-25T10:22:48.369Z,64.30
2018-11-25T10:23:48.350Z,57.80
2018-11-25T10:24:48.329Z,59.50
2018-11-25T10:25:48.300Z,60.20
2018-11-25T10:26:48.275Z,63.10
2018-11-25T10:27:48.248Z,61.40
2018-11-25T10:28:48.224Z,59.50
2018-11-25T10:29:48.198Z,62.60
2018-11-25T10:30:48.171Z,65.90
2018-11-25T10:31:48.144Z,59.50
2018-11-25T10:32:48.118Z,61.00
2018-11-25T10:33:48.092Z,66.60
2018-11-25T10:34:48.070Z,64.00
2018-11-25T10:35:48.053Z,62.90
2018-11-25T10:36:48.021Z,66.50
2018-11-25T10:37:48.006Z,65.70
2018-11-25T10:38:47.965Z,65.10
2018-11-25T10:39:47.944Z,62.80
2018-11-25T10:40:47.911Z,62.40
2018-11-25T10:41:47.893Z,66.50
2018-11-25T10:42:47.862Z,58.30
2018-11-25T10:43:47.840Z,64.10
2018-11-25T10:44:47.817Z,60.60
2018-11-25T10:45:47.804Z,60.50
2018-11-25T10:46:47.777Z,59.50
2018-11-25T10:47:47.745Z,60.50
2018-11-25T10:48:47.719Z,64.70
2018-11-25T10:49:47.683Z,61.90
2018-11-25T10:50:51.198Z,60.50
2018-11-25T10:51:47.639Z,60.90
2018-11-25T10:52:47.626Z,63.50
2018-11-25T10:53:47.590Z,59.70
2018-11-25T10:54:47.577Z,65.10
2018-11-25T10:55:47.549Z,61.50
2018-11-25T10:56:47.511Z,65.10
2018-11-25T10:57:47.492Z,62.70
2018-11-25T10:58:47.462Z,63.20
2018-11-25T10:59:47.436Z,63.00
2018-11-25T11:00:47.434Z,59.60
2018-11-25T11:01:47.393Z,65.40
2018-11-25T11:02:47.357Z,63.20
2018-11-25T11:03:47.335Z,61.50
2018-11-25T11:04:47.313Z,63.70
2018-11-25T11:05:47.296Z,62.10
2018-11-25T11:06:47.257Z,63.80
2018-11-25T11:07:47.229Z,65.40
2018-11-25T11:08:47.204Z,69.60
2018-11-25T11:09:47.178Z,66.50
2018-11-25T11:10:47.156Z,68.50
2018-11-25T11:11:47.134Z,66.60
2018-11-25T11:12:47.106Z,65.30
2018-11-25T11:13:47.075Z,61.20
2018-11-25T11:14:47.054Z,63.40
2018-11-25T11:15:47.025Z,68.00
2018-11-25T11:16:53.792Z,64.70
2018-11-25T11:17:46.976Z,59.90
2018-11-25T11:18:46.951Z,63.90
2018-11-25T11:19:46.925Z,67.00
2018-11-25T11:20:46.904Z,63.40
2018-11-25T11:21:46.872Z,64.50
2018-11-25T11:22:46.855Z,65.40
2018-11-25T11:23:46.837Z,64.90
2018-11-25T11:24:46.807Z,66.80
2018-11-25T11:25:46.782Z,67.60
2018-11-25T11:26:46.762Z,68.50
2018-11-25T11:27:46.721Z,68.90
2018-11-25T11:28:46.702Z,64.40
2018-11-25T11:29:46.672Z,72.20
2018-11-25T11:30:46.645Z,69.70
2018-11-25T11:31:46.645Z,74.00
2018-11-25T11:32:46.593Z,68.50
2018-11-25T11:33:46.574Z,70.50
2018-11-25T11:34:46.543Z,70.70
2018-11-25T11:35:46.518Z,74.20
2018-11-25T11:36:46.498Z,77.40
2018-11-25T11:37:46.466Z,76.10
2018-11-25T11:38:46.443Z,78.10
2018-11-25T11:39:46.422Z,77.70
2018-11-25T11:40:46.387Z,77.20
2018-11-25T11:41:46.367Z,69.00
2018-11-25T11:42:46.341Z,73.20
2018-11-25T11:43:46.319Z,73.50
2018-11-25T11:44:46.303Z,80.30
2018-11-25T11:45:46.263Z,74.20
2018-11-25T11:46:46.246Z,73.30
2018-11-25T11:47:46.221Z,74.70
2018-11-25T11:48:46.195Z,72.70
2018-11-25T11:49:46.162Z,72.50
2018-11-25T11:50:46.142Z,71.10
2018-11-25T11:51:46.117Z,73.10
2018-11-25T11:52:46.091Z,77.50
2018-11-25T11:53:46.063Z,74.00
2018-11-25T11:54:46.034Z,65.10
2018-11-25T11:55:46.007Z,73.60
2018-11-25T11:56:45.983Z,78.00
2018-11-25T11:57:45.958Z,71.50
2018-11-25T11:58:45.931Z,74.00
2018-11-25T11:59:45.912Z,72.90
2018-11-25T12:00:45.884Z,77.80
2018-11-25T12:01:45.854Z,74.60
2018-11-25T12:02:45.837Z,72.80
2018-11-25T12:03:45.827Z,74.60
2018-11-25T12:04:45.785Z,76.00
2018-11-25T12:05:45.758Z,72.60
2018-11-25T12:06:45.735Z,72.00
2018-11-25T12:07:45.708Z,72.40
2018-11-25T12:08:45.695Z,72.30
2018-11-25T12:09:45.653Z,68.20
2018-11-25T12:10:45.630Z,73.50
2018-11-25T12:11:45.608Z,74.50
2018-11-25T12:12:45.585Z,70.10
2018-11-25T12:13:45.549Z,69.10
2018-11-25T12:14:45.526Z,71.70
2018-11-25T12:15:45.505Z,69.50
2018-11-25T12:16:45.472Z,73.20
2018-11-25T12:17:45.448Z,70.50
2018-11-25T12:18:45.424Z,71.10
2018-11-25T12:19:45.400Z,67.30
2018-11-25T12:20:45.387Z,70.80
2018-11-25T12:21:45.350Z,73.40
2018-11-25T12:22:45.324Z,64.30
2018-11-25T12:23:45.308Z,60.00
2018-11-25T12:24:45.284Z,60.40
2018-11-25T12:25:45.255Z,55.40
2018-11-25T12:26:45.226Z,55.10
2018-11-25T12:27:45.197Z,53.30
2018-11-25T12:28:45.187Z,56.60
2018-11-25T12:29:45.149Z,52.90
2018-11-25T12:30:45.119Z,56.10
2018-11-25T12:31:45.097Z,55.50
2018-11-25T12:32:45.073Z,54.00
2018-11-25T12:33:45.043Z,51.50
2018-11-25T12:34:45.083Z,45.40
2018-11-25T12:35:44.996Z,44.70
2018-11-25T12:36:44.966Z,43.10
2018-11-25T12:37:44.948Z,44.80
2018-11-25T12:38:44.925Z,41.00
2018-11-25T12:39:44.907Z,44.60
2018-11-25T12:40:44.871Z,40.10
2018-11-25T12:41:44.848Z,35.60
2018-11-25T12:42:44.825Z,36.30
2018-11-25T12:43:44.792Z,36.40
2018-11-25T12:44:44.768Z,33.70
2018-11-25T12:45:44.743Z,34.80
2018-11-25T12:46:44.715Z,34.70